createdAt,value
2023-01-13T00:00:26.608Z,5.40
2023-01-13T00:04:31.894Z,5.03
2023-01-13T00:08:34.195Z,4.18
2023-01-13T00:12:39.838Z,5.05
2023-01-13T00:16:41.792Z,5.25
2023-01-13T00:20:43.769Z,3.30
2023-01-13T00:24:45.819Z,2.42
2023-01-13T00:28:48.952Z,2.20
2023-01-13T00:32:50.999Z,2.70
2023-01-13T00:36:53.140Z,2.72
2023-01-13T00:41:00.386Z,2.70
2023-01-13T00:45:02.467Z,2.75
2023-01-13T00:49:04.868Z,3.53
2023-01-13T00:53:06.931Z,3.83
2023-01-13T00:57:09.185Z,4.13
2023-01-13T01:01:20.521Z,4.40
2023-01-13T01:05:22.780Z,3.45
2023-01-13T01:09:26.692Z,4.32
2023-01-13T01:13:28.923Z,3.22
2023-01-13T01:17:31.015Z,4.10
2023-01-13T01:21:33.582Z,4.30
2023-01-13T01:25:35.639Z,3.83
2023-01-13T01:29:37.834Z,4.00
2023-01-13T01:33:41.253Z,3.85
2023-01-13T01:37:43.272Z,4.03
2023-01-13T01:42:05.199Z,4.10
2023-01-13T01:46:07.659Z,4.28
2023-01-13T01:50:10.590Z,3.80
2023-01-13T01:54:19.955Z,4.85
2023-01-13T01:58:27.758Z,4.03
2023-01-13T02:02:30.912Z,3.60
2023-01-13T02:06:33.163Z,3.70
2023-01-13T02:10:35.555Z,3.58
2023-01-13T02:14:39.422Z,3.92
2023-01-13T02:19:02.972Z,4.18
2023-01-13T02:24:02.789Z,3.88
2023-01-13T02:28:26.655Z,4.20
2023-01-13T02:32:49.589Z,3.53
2023-01-13T02:37:07.947Z,3.80
2023-01-13T02:41:37.244Z,3.72
2023-01-13T02:46:06.817Z,4.35
2023-01-13T02:50:17.519Z,3.92
2023-01-13T02:54:25.767Z,3.85
2023-01-13T02:58:29.726Z,3.80
2023-01-13T03:02:32.293Z,3.92
2023-01-13T03:07:13.153Z,3.70
2023-01-13T03:11:23.010Z,4.05
2023-01-13T03:15:46.079Z,3.78
2023-01-13T03:20:06.646Z,4.03
2023-01-13T03:24:25.805Z,3.72
2023-01-13T03:28:35.238Z,3.72
2023-01-13T03:32:41.269Z,3.33
2023-01-13T03:36:47.790Z,3.40
2023-01-13T03:40:58.361Z,3.50
2023-01-13T03:45:10.115Z,3.35
2023-01-13T03:49:15.480Z,3.50
2023-01-13T03:53:30.233Z,3.70
2023-01-13T04:01:46.020Z,4.85
2023-01-13T04:05:53.648Z,4.05
2023-01-13T04:10:02.819Z,4.03
2023-01-13T04:14:09.282Z,3.80
2023-01-13T04:18:15.895Z,3.67
2023-01-13T04:22:18.041Z,3.70
2023-01-13T04:26:20.117Z,3.78
2023-01-13T04:30:22.094Z,3.22
2023-01-13T04:34:25.139Z,4.18
2023-01-13T04:38:28.003Z,4.00
2023-01-13T04:42:30.042Z,3.63
2023-01-13T04:46:32.335Z,4.00
2023-01-13T04:50:34.599Z,3.40
2023-01-13T04:54:36.723Z,3.92
2023-01-13T04:58:38.796Z,3.47
2023-01-13T05:02:41.709Z,3.83
2023-01-13T05:06:43.884Z,3.97
2023-01-13T05:10:46.067Z,3.88
2023-01-13T05:15:07.113Z,4.25
2023-01-13T05:19:09.205Z,4.20
2023-01-13T05:23:30.549Z,3.45
2023-01-13T05:27:33.852Z,3.85
2023-01-13T05:31:36.052Z,4.47
2023-01-13T05:35:40.058Z,3.85
2023-01-13T05:40:01.823Z,2.95
2023-01-13T05:44:04.163Z,4.68
2023-01-13T05:48:06.284Z,4.13
2023-01-13T05:52:08.399Z,3.97
2023-01-13T05:56:11.265Z,4.38
2023-01-13T06:00:13.909Z,5.25
2023-01-13T06:04:16.395Z,4.20
2023-01-13T06:08:19.231Z,3.83
2023-01-13T06:12:21.336Z,4.82
2023-01-13T06:16:23.494Z,4.05
2023-01-13T06:20:25.990Z,4.25
2023-01-13T06:24:28.684Z,3.72
2023-01-13T06:28:30.788Z,4.10
2023-01-13T06:32:38.997Z,4.68
2023-01-13T06:36:48.990Z,4.57
2023-01-13T06:40:51.262Z,4.38
2023-01-13T06:44:53.568Z,3.75
2023-01-13T06:48:55.661Z,4.03
2023-01-13T06:52:57.814Z,3.78
2023-01-13T06:56:59.963Z,4.63
2023-01-13T07:01:02.360Z,4.00
2023-01-13T07:05:04.788Z,4.38
2023-01-13T07:09:07.086Z,4.07
2023-01-13T07:13:27.614Z,4.10
2023-01-13T07:17:30.036Z,3.85
2023-01-13T07:21:32.022Z,4.05
2023-01-13T07:25:35.272Z,4.22
2023-01-13T07:29:37.863Z,5.57
2023-01-13T07:33:40.185Z,9.85
2023-01-13T07:37:42.466Z,4.63
2023-01-13T07:42:03.215Z,5.07
2023-01-13T07:46:06.568Z,4.80
2023-01-13T07:50:09.400Z,4.90
2023-01-13T07:54:11.601Z,4.53
2023-01-13T07:58:13.745Z,5.18
2023-01-13T08:02:16.093Z,5.30
2023-01-13T08:06:18.849Z,5.65
2023-01-13T08:10:20.939Z,5.53
2023-01-13T08:14:23.059Z,5.05
2023-01-13T08:18:25.289Z,4.95
2023-01-13T08:22:27.435Z,6.70
2023-01-13T08:26:29.824Z,7.15
2023-01-13T08:30:32.254Z,5.60
2023-01-13T08:34:36.466Z,6.40
2023-01-13T08:38:40.044Z,5.95
2023-01-13T08:42:42.299Z,6.18
2023-01-13T08:46:44.625Z,6.30
2023-01-13T08:50:46.709Z,6.40
2023-01-13T08:54:48.885Z,5.53
2023-01-13T08:58:51.129Z,6.97
2023-01-13T09:02:53.290Z,7.40
2023-01-13T09:06:55.868Z,6.45
2023-01-13T09:10:58.139Z,6.50
2023-01-13T09:15:01.547Z,6.60
2023-01-13T09:19:03.706Z,6.32
2023-01-13T09:35:30.753Z,6.75
2023-01-13T09:39:34.233Z,6.43
2023-01-13T09:43:54.441Z,7.65
2023-01-13T09:48:15.323Z,5.55
2023-01-13T09:52:26.644Z,6.22
2023-01-13T09:56:29.156Z,5.90
2023-01-13T10:00:45.099Z,5.63
2023-01-13T10:05:10.533Z,6.13
2023-01-13T10:09:26.606Z,9.85
2023-01-13T10:13:30.810Z,9.85
2023-01-13T10:17:47.598Z,13.00
2023-01-13T10:22:02.134Z,8.43
2023-01-13T10:26:29.010Z,7.25
2023-01-13T10:30:39.315Z,18.65
2023-01-13T10:34:57.511Z,9.02
2023-01-13T10:39:14.843Z,7.43
2023-01-13T10:43:17.218Z,7.88
2023-01-13T10:47:32.061Z,8.30
2023-01-13T10:51:40.361Z,8.35
2023-01-13T10:55:42.724Z,6.90
2023-01-13T10:59:44.942Z,7.13
2023-01-13T11:03:48.290Z,7.18
2023-01-13T11:07:58.130Z,7.57
2023-01-13T11:12:00.462Z,7.35
2023-01-13T11:16:12.706Z,8.65
2023-01-13T11:20:29.675Z,9.70
2023-01-13T11:24:44.925Z,9.50
2023-01-13T11:29:22.431Z,9.77
2023-01-13T11:34:03.625Z,9.32
2023-01-13T11:38:34.899Z,9.45
2023-01-13T11:42:45.658Z,8.68
2023-01-13T11:46:52.357Z,9.55
2023-01-13T11:51:08.042Z,8.48
2023-01-13T11:55:22.822Z,11.48
2023-01-13T11:59:52.477Z,12.40
2023-01-13T12:04:15.879Z,9.80
2023-01-13T12:08:48.429Z,9.77
2023-01-13T12:13:19.459Z,9.90
2023-01-13T12:17:27.110Z,9.05
2023-01-13T12:21:41.560Z,8.75
2023-01-13T12:25:49.769Z,9.07
2023-01-13T12:29:55.707Z,9.60
2023-01-13T12:34:09.343Z,7.88
2023-01-13T12:38:30.220Z,8.85
2023-01-13T12:43:29.097Z,9.35
2023-01-13T12:47:37.565Z,9.98
2023-01-13T12:51:51.969Z,9.27
2023-01-13T12:55:54.209Z,9.18
2023-01-13T12:59:59.308Z,9.82
2023-01-13T13:04:13.268Z,9.95
2023-01-13T13:08:15.655Z,8.93
2023-01-13T13:13:01.451Z,10.98
2023-01-13T13:17:28.570Z,9.57
2023-01-13T13:22:09.361Z,9.30
2023-01-13T13:26:46.119Z,8.85
2023-01-13T13:31:06.276Z,10.57
2023-01-13T13:35:28.414Z,10.02
2023-01-13T13:39:54.241Z,10.90
2023-01-13T13:44:21.160Z,10.50
2023-01-13T13:48:29.339Z,10.95
2023-01-13T13:52:54.320Z,11.05
2023-01-13T14:01:00.486Z,11.90
2023-01-13T14:05:15.079Z,12.10
2023-01-13T14:09:19.131Z,11.55
2023-01-13T14:13:30.830Z,12.77
2023-01-13T14:17:34.635Z,12.05
2023-01-13T14:21:36.880Z,12.07
2023-01-13T14:25:47.756Z,10.65
2023-01-13T14:29:53.915Z,11.27
2023-01-13T14:33:58.531Z,11.35
2023-01-13T14:42:13.579Z,11.27
2023-01-13T14:46:17.820Z,11.82
2023-01-13T14:50:28.230Z,11.55
2023-01-13T14:54:45.761Z,11.30
2023-01-13T14:58:49.897Z,10.00
2023-01-13T15:02:58.427Z,10.55
2023-01-13T15:07:01.637Z,10.90
2023-01-13T15:11:06.696Z,11.10
2023-01-13T15:15:34.657Z,21.60
2023-01-13T15:19:36.736Z,16.13
2023-01-13T15:23:41.180Z,14.45
2023-01-13T15:27:45.304Z,14.05
2023-01-13T15:31:47.593Z,17.45
2023-01-13T15:35:52.082Z,15.05
2023-01-13T15:44:46.983Z,18.33
2023-01-13T15:48:53.020Z,17.52
2023-01-13T15:52:57.808Z,12.25
2023-01-13T15:57:02.784Z,12.18
2023-01-13T16:01:05.384Z,13.07
2023-01-13T16:05:08.960Z,14.97
2023-01-13T16:09:14.033Z,12.30
2023-01-13T16:13:17.999Z,12.00
2023-01-13T16:17:23.914Z,12.68
2023-01-13T16:21:27.183Z,14.57
2023-01-13T16:25:29.437Z,12.85
2023-01-13T16:29:31.541Z,13.68
2023-01-13T16:33:33.895Z,19.52
2023-01-13T16:37:36.103Z,16.92
2023-01-13T16:42:02.227Z,15.20
2023-01-13T16:46:34.078Z,15.05
2023-01-13T16:50:41.401Z,15.80
2023-01-13T16:54:43.684Z,15.38
2023-01-13T16:58:45.842Z,18.23
2023-01-13T17:02:48.447Z,14.98
2023-01-13T17:06:58.606Z,11.80
2023-01-13T17:11:01.020Z,12.23
2023-01-13T17:15:04.380Z,13.48
2023-01-13T17:19:07.070Z,13.23
2023-01-13T17:23:09.277Z,11.15
2023-01-13T17:27:11.585Z,12.65
2023-01-13T17:31:13.791Z,17.27
2023-01-13T17:35:19.043Z,16.13
2023-01-13T17:39:24.548Z,14.32
2023-01-13T17:43:26.893Z,16.25
2023-01-13T17:47:29.046Z,19.67
2023-01-13T17:51:31.246Z,19.00
2023-01-13T17:55:33.437Z,17.23
2023-01-13T17:59:35.730Z,18.50
2023-01-13T18:03:39.261Z,15.07
2023-01-13T18:07:41.423Z,17.73
2023-01-13T18:11:44.251Z,17.95
2023-01-13T18:15:47.108Z,15.20
2023-01-13T18:20:08.705Z,12.75
2023-01-13T18:24:35.508Z,12.00
2023-01-13T18:28:37.673Z,14.27
2023-01-13T18:32:39.783Z,10.68
2023-01-13T18:36:41.998Z,11.27
2023-01-13T18:40:44.924Z,12.13
2023-01-13T18:44:47.074Z,11.38
2023-01-13T18:48:49.210Z,10.13
2023-01-13T18:52:52.073Z,16.38
2023-01-13T18:56:54.303Z,13.85
2023-01-13T19:01:03.646Z,13.25
2023-01-13T19:05:06.874Z,12.85
2023-01-13T19:09:11.183Z,14.45
2023-01-13T19:13:16.355Z,14.98
2023-01-13T19:17:19.223Z,13.73
2023-01-13T19:21:21.723Z,16.08
2023-01-13T19:25:24.759Z,13.80
2023-01-13T19:29:27.059Z,14.13
2023-01-13T19:33:31.140Z,13.27
2023-01-13T19:37:34.377Z,12.95
2023-01-13T19:41:55.413Z,14.98
2023-01-13T19:45:57.609Z,14.23
2023-01-13T19:50:03.636Z,21.08
2023-01-13T19:54:05.814Z,14.00
2023-01-13T19:58:09.326Z,15.82
2023-01-13T20:02:27.885Z,16.08
2023-01-13T20:06:32.856Z,20.45
2023-01-13T20:14:37.142Z,17.35
2023-01-13T20:18:39.369Z,13.68
2023-01-13T20:22:41.559Z,15.05
2023-01-13T20:26:45.429Z,14.68
2023-01-13T20:30:49.332Z,13.23
2023-01-13T20:34:51.929Z,14.93
2023-01-13T20:39:02.103Z,17.10
2023-01-13T20:43:05.531Z,20.23
2023-01-13T20:47:09.288Z,17.13
2023-01-13T20:51:12.276Z,18.60
2023-01-13T20:55:14.788Z,19.80
2023-01-13T20:59:17.101Z,16.48
2023-01-13T21:03:20.091Z,17.23
2023-01-13T21:07:22.513Z,20.98
2023-01-13T21:11:45.285Z,22.50
2023-01-13T21:15:48.430Z,18.85
2023-01-13T21:19:50.698Z,18.73
2023-01-13T21:23:53.618Z,17.98
2023-01-13T21:28:04.304Z,18.20
2023-01-13T21:32:06.741Z,18.17
2023-01-13T21:36:11.875Z,17.73
2023-01-13T21:40:14.940Z,17.15
2023-01-13T21:44:38.618Z,16.40
2023-01-13T21:48:40.793Z,15.25
2023-01-13T21:52:43.401Z,19.60
2023-01-13T21:56:45.523Z,19.23
2023-01-13T22:00:49.364Z,21.02
2023-01-13T22:04:52.319Z,21.27
2023-01-13T22:08:55.741Z,19.52
2023-01-13T22:13:21.007Z,17.08
2023-01-13T22:17:25.375Z,17.70
2023-01-13T22:21:27.423Z,17.33
2023-01-13T22:25:30.371Z,15.63
2023-01-13T22:29:32.452Z,15.48
2023-01-13T22:33:34.555Z,14.68
2023-01-13T22:37:36.712Z,21.92
2023-01-13T22:41:38.838Z,18.80
2023-01-13T22:45:40.953Z,17.17
2023-01-13T22:49:47.689Z,16.25
2023-01-13T22:53:50.291Z,19.35
2023-01-13T22:57:53.164Z,17.27
2023-01-13T23:01:55.195Z,17.17
2023-01-13T23:05:57.920Z,15.05
2023-01-13T23:10:00.177Z,18.92
2023-01-13T23:14:05.179Z,19.05
2023-01-13T23:18:07.280Z,18.23
2023-01-13T23:22:09.701Z,19.67
2023-01-13T23:26:12.730Z,18.13
2023-01-13T23:30:14.927Z,19.90
2023-01-13T23:34:17.075Z,18.30
2023-01-13T23:38:19.135Z,17.88
2023-01-13T23:42:21.312Z,19.35
2023-01-13T23:46:23.820Z,20.67
2023-01-13T23:50:25.920Z,19.40
2023-01-13T23:54:28.043Z,21.77
2023-01-13T23:58:31.275Z,21.98
